Winston Salem, NC

11:18 PM EST on November 27, 2014 (GMT -0500)
Waughtown | Change Station
CLOSE
Current Station
Personal Weather Station
Location: WINSTON-SALEM, NC
Elevation: 853 ft
Nearby Weather Stations

Elev 853 ft 36.06 °N, 80.24 °W | Updated 3 seconds ago

Overcast
Overcast
35.8 °F
Feels Like 36 °F
N
0.0
Wind Variable Wind from South
Gusts 0.0 mph

Today
High -- | Low -- °F
--% Chance of Precip.
Yesterday
High -- | Low -- °F
Precip. -- in
7:09 AM 5:07 PM
Waxing Crescent, 36% visible
Pressure 30.30 in
Visibility 10.0 miles
Clouds Overcast 4100 ft
Windchill 36 °F
Dew Point 24 °F
Humidity 62%
Rainfall 0.15 in
Snow Depth Not available.
UV 0 out of 12
Pollen .30 out of 12
Air Quality Not available.
Flu Activity Not available.
METAR KINT 280354Z 34011G18KT 10SM OVC041 02/M08 A3028 RMK AO2 SLP258 T00171078

More Conditions Fewer Conditions

Pressure 30.30 in
Visibility 10.0 miles
Clouds Overcast 4100 ft
Windchill 36 °F
Dew Point 24 °F
Humidity 62%
Rainfall 0.15 in
Snow Depth Not available.
UV 0 out of 12
Pollen .30 out of 12
Air Quality Not available.
Flu Activity Not available.
METAR KINT 280354Z 34011G18KT 10SM OVC041 02/M08 A3028 RMK AO2 SLP258 T00171078

More Conditions Fewer Conditions

10-Day Weather Forecast

Almanac

Astronomy

Nov. 27, 2014 Rise Set
Actual Time
Civil Twilight
Nautical Twilight
Astronomical Twilight
Moon
Length of Visible Light
Length of Day
Tomorrow will be .
, % of the Moon is Illuminated

Today's Extremes

State Highs State Lows

Community

WunderPhotos

Upload Photos

1,774,179 photos uploaded!

WunderBlogs® & News

Nearby

Air Quality

  Air Quality AQ Index Pollutant
Not available.

Snow Depth

Station Depth Elevation

Earthquake Activity

City Distance Mag. Time & Date
Minimum magnitude displayed is 2.5.

Coastal Water Temperatures

Place Temperature

Nearby Weather Stations